MSSS/SAL METAR and TAF weather

Enter ICAO airport designator
Station Type Date Time Source
MSSS METAR 2023/11/30 22:50 UTC NOAA

MSSS 302250Z 19005KT CAVOK 27/23 Q1013 A2992


Station Type Date Time Source
MSSS Decoded METAR 2023/11/30 22:50 UTC NOAA

San Salvador / Ilopango, El Salvador (MSSS) 13-42N 089-07W 621M
Nov 30, 2023 - 05:50 PM EST / 2023.11.30 2250 UTC
Wind: from the S (190 degrees) at 6 MPH (5 KT):0
Visibility: greater than 7 mile(s):0
Temperature: 80 F (27 C)
Dew Point: 73 F (23 C)
Relative Humidity: 78%
Pressure (altimeter): 29.92 in. Hg (1013 hPa)
ob: MSSS 302250Z 19005KT CAVOK 27/23 Q1013 A2992
cycle: 23

Station Type Date Time Source
MSSS TAF 2023/11/30 18:27 UTC NOAA

TAF MSSS 301615Z 3018/0118 17004KT 9999 FEW033 TX31/3019Z TN21/0111Z
FM010000 01003KT 9999 SCT050
FM010900 33003KT CAVOK
FM011800 02003KT 9999 FEW033

Example: see airport list